SKCG/CTG METAR and TAF weather

Enter ICAO airport designator
Station Type Date Time Source
SKCG METAR 2019/02/18 04:00 UTC NOAA

SKCG 180400Z 02011KT 9999 SCT012 27/24 A2985


Station Type Date Time Source
SKCG Decoded METAR 2019/02/18 04:00 UTC NOAA

Cartagena / Rafael Nunez, Colombia (SKCG) 10-27N 075-31W 12M
Feb 17, 2019 - 11:00 PM EST / 2019.02.18 0400 UTC
Wind: from the NNE (020 degrees) at 13 MPH (11 KT):0
Visibility: greater than 7 mile(s):0
Sky conditions: partly cloudy
Temperature: 80 F (27 C)
Dew Point: 75 F (24 C)
Relative Humidity: 83%
Pressure (altimeter): 29.85 in. Hg (1010 hPa)
ob: SKCG 180400Z 02011KT 9999 SCT012 27/24 A2985
cycle: 4

Station Type Date Time Source
SKCG TAF 2019/02/17 18:48 UTC NOAA

TAF SKCG 171700Z 1718/1818 35016KT 9999 FEW020 TX31/1718Z TN25/1811Z


Example: see airport list